createdAt,value
2022-11-09T00:00:42.565Z,5.30
2022-11-09T00:03:10.415Z,5.15
2022-11-09T00:05:39.733Z,5.30
2022-11-09T00:08:08.250Z,5.32
2022-11-09T00:10:36.368Z,5.30
2022-11-09T00:13:04.266Z,5.05
2022-11-09T00:15:32.225Z,5.45
2022-11-09T00:18:01.794Z,5.38
2022-11-09T00:20:29.738Z,5.20
2022-11-09T00:22:58.966Z,5.32
2022-11-09T00:25:26.889Z,5.25
2022-11-09T00:27:54.851Z,5.35
2022-11-09T00:30:22.761Z,4.88
2022-11-09T00:32:50.665Z,5.22
2022-11-09T00:35:18.718Z,5.18
2022-11-09T00:37:46.682Z,5.50
2022-11-09T00:40:16.232Z,5.25
2022-11-09T00:42:44.116Z,5.03
2022-11-09T00:45:12.244Z,5.35
2022-11-09T00:47:40.178Z,5.43
2022-11-09T00:50:08.993Z,5.13
2022-11-09T00:52:38.399Z,5.35
2022-11-09T00:55:06.929Z,5.80
2022-11-09T00:57:36.169Z,5.80
2022-11-09T01:00:04.930Z,4.95
2022-11-09T01:02:32.871Z,5.40
2022-11-09T01:05:00.988Z,5.15
2022-11-09T01:07:28.933Z,5.38
2022-11-09T01:09:56.856Z,5.20
2022-11-09T01:12:25.750Z,5.30
2022-11-09T01:14:54.989Z,5.22
2022-11-09T01:17:23.102Z,5.57
2022-11-09T01:19:51.046Z,5.50
2022-11-09T01:22:19.633Z,5.75
2022-11-09T01:24:48.899Z,5.32
2022-11-09T01:27:17.666Z,5.38
2022-11-09T01:29:45.585Z,5.25
2022-11-09T01:32:14.824Z,5.05
2022-11-09T01:34:43.405Z,5.45
2022-11-09T01:37:11.371Z,5.10
2022-11-09T01:39:39.290Z,5.40
2022-11-09T01:42:07.233Z,5.72
2022-11-09T01:44:36.109Z,5.43
2022-11-09T01:47:05.466Z,5.55
2022-11-09T01:49:40.750Z,5.60
2022-11-09T01:52:12.732Z,5.53
2022-11-09T01:54:43.870Z,5.68
2022-11-09T01:57:13.176Z,5.57
2022-11-09T01:59:42.628Z,5.60
2022-11-09T02:02:10.563Z,5.72
2022-11-09T02:04:44.438Z,5.53
2022-11-09T02:07:12.588Z,5.47
2022-11-09T02:09:42.697Z,5.30
2022-11-09T02:12:10.647Z,5.57
2022-11-09T02:14:38.535Z,5.75
2022-11-09T02:17:06.426Z,5.50
2022-11-09T02:19:34.289Z,5.25
2022-11-09T02:22:03.596Z,5.45
2022-11-09T02:24:33.552Z,5.70
2022-11-09T02:27:01.436Z,5.22
2022-11-09T02:29:38.277Z,5.47
2022-11-09T02:32:10.102Z,5.68
2022-11-09T02:34:38.163Z,5.63
2022-11-09T02:37:08.031Z,5.32
2022-11-09T02:39:35.980Z,5.40
2022-11-09T02:42:09.033Z,5.70
2022-11-09T02:44:39.691Z,5.82
2022-11-09T02:47:08.979Z,5.75
2022-11-09T02:49:36.868Z,5.82
2022-11-09T02:52:04.993Z,5.53
2022-11-09T02:54:34.337Z,5.57
2022-11-09T02:57:02.384Z,5.50
2022-11-09T02:59:30.647Z,5.80
2022-11-09T03:01:59.532Z,5.45
2022-11-09T03:04:30.491Z,5.65
2022-11-09T03:06:58.776Z,5.53
2022-11-09T03:09:26.975Z,5.82
2022-11-09T03:11:56.287Z,5.50
2022-11-09T03:14:24.187Z,5.90
2022-11-09T03:16:56.177Z,5.60
2022-11-09T03:19:24.626Z,5.70
2022-11-09T03:21:53.666Z,5.47
2022-11-09T03:24:24.708Z,5.03
2022-11-09T03:26:57.994Z,5.57
2022-11-09T03:29:26.341Z,5.50
2022-11-09T03:31:56.646Z,5.97
2022-11-09T03:34:24.720Z,5.72
2022-11-09T03:36:52.675Z,5.80
2022-11-09T03:39:21.877Z,5.45
2022-11-09T03:41:49.834Z,5.78
2022-11-09T03:44:20.066Z,5.55
2022-11-09T03:46:48.169Z,5.70
2022-11-09T03:49:16.019Z,5.93
2022-11-09T03:51:43.918Z,5.75
2022-11-09T03:54:11.853Z,6.13
2022-11-09T03:56:39.716Z,5.90
2022-11-09T03:59:07.601Z,5.60
2022-11-09T04:01:36.897Z,5.97
2022-11-09T04:04:04.896Z,5.78
2022-11-09T04:06:32.803Z,6.00
2022-11-09T04:09:00.728Z,6.25
2022-11-09T04:11:28.594Z,5.70
2022-11-09T04:13:56.641Z,6.40
2022-11-09T04:16:24.480Z,5.80
2022-11-09T04:18:53.748Z,5.72
2022-11-09T04:21:24.017Z,6.07
2022-11-09T04:23:52.153Z,6.13
2022-11-09T04:26:20.009Z,5.75
2022-11-09T04:28:47.905Z,6.22
2022-11-09T04:31:15.850Z,5.78
2022-11-09T04:33:43.731Z,5.65
2022-11-09T04:36:13.101Z,6.40
2022-11-09T04:38:40.987Z,5.88
2022-11-09T04:41:09.334Z,6.20
2022-11-09T04:43:37.234Z,5.85
2022-11-09T04:46:05.164Z,6.25
2022-11-09T04:48:33.265Z,6.38
2022-11-09T04:51:02.236Z,6.00
2022-11-09T04:53:31.685Z,5.97
2022-11-09T04:55:59.569Z,5.80
2022-11-09T04:58:27.451Z,5.60
2022-11-09T05:00:55.419Z,5.97
2022-11-09T05:03:23.558Z,6.10
2022-11-09T05:05:51.557Z,5.97
2022-11-09T05:08:19.500Z,5.90
2022-11-09T05:10:48.753Z,6.30
2022-11-09T05:13:17.088Z,5.80
2022-11-09T05:15:45.133Z,5.93
2022-11-09T05:18:13.041Z,5.90
2022-11-09T05:20:41.048Z,5.95
2022-11-09T05:23:26.433Z,5.60
2022-11-09T05:25:55.648Z,6.35
2022-11-09T05:28:23.700Z,5.68
2022-11-09T05:30:51.705Z,6.28
2022-11-09T05:33:19.799Z,5.97
2022-11-09T05:35:47.856Z,6.03
2022-11-09T05:38:15.748Z,5.90
2022-11-09T05:40:43.610Z,6.20
2022-11-09T05:43:13.002Z,6.25
2022-11-09T05:45:43.076Z,6.22
2022-11-09T05:48:11.480Z,5.88
2022-11-09T05:50:39.369Z,5.95
2022-11-09T05:53:23.595Z,6.20
2022-11-09T05:55:51.902Z,6.35
2022-11-09T05:58:21.110Z,6.00
2022-11-09T06:00:49.004Z,5.63
2022-11-09T06:03:17.000Z,5.85
2022-11-09T06:05:44.960Z,5.70
2022-11-09T06:08:14.053Z,5.88
2022-11-09T06:10:41.903Z,5.80
2022-11-09T06:13:09.970Z,6.13
2022-11-09T06:15:39.172Z,6.05
2022-11-09T06:18:07.158Z,6.22
2022-11-09T06:20:38.287Z,6.20
2022-11-09T06:23:08.802Z,6.45
2022-11-09T06:25:37.926Z,6.63
2022-11-09T06:28:05.938Z,6.50
2022-11-09T06:30:33.796Z,6.20
2022-11-09T06:33:03.486Z,6.22
2022-11-09T06:35:31.773Z,6.22
2022-11-09T06:38:00.153Z,6.53
2022-11-09T06:40:28.180Z,8.68
2022-11-09T06:42:57.986Z,9.30
2022-11-09T06:45:26.101Z,9.68
2022-11-09T06:47:56.568Z,9.45
2022-11-09T06:50:26.057Z,10.57
2022-11-09T06:52:57.171Z,9.80
2022-11-09T06:55:25.305Z,9.43
2022-11-09T06:57:53.367Z,9.80
2022-11-09T07:00:21.706Z,10.80
2022-11-09T07:02:49.669Z,9.82
2022-11-09T07:05:17.742Z,9.32
2022-11-09T07:07:47.014Z,9.77
2022-11-09T07:10:14.944Z,9.80
2022-11-09T07:12:42.965Z,9.18
2022-11-09T07:15:12.362Z,9.93
2022-11-09T07:17:41.196Z,10.00
2022-11-09T07:20:10.176Z,9.38
2022-11-09T07:22:39.474Z,9.00
2022-11-09T07:25:09.621Z,9.40
2022-11-09T07:27:37.695Z,9.75
2022-11-09T07:30:06.344Z,9.77
2022-11-09T07:33:06.822Z,9.50
2022-11-09T07:35:22.430Z,9.40
2022-11-09T07:37:50.353Z,9.35
2022-11-09T07:40:20.065Z,9.05
2022-11-09T07:42:47.967Z,9.43
2022-11-09T07:45:16.254Z,9.25
2022-11-09T07:47:44.281Z,9.35
2022-11-09T07:50:12.208Z,9.40
2022-11-09T07:52:40.101Z,8.93
2022-11-09T07:55:08.757Z,8.30
2022-11-09T07:57:38.011Z,9.35
2022-11-09T08:00:06.614Z,8.82
2022-11-09T08:02:39.342Z,8.52
2022-11-09T08:05:08.093Z,8.55
2022-11-09T08:07:36.083Z,8.75
2022-11-09T08:10:04.025Z,8.30
2022-11-09T08:12:36.903Z,8.93
2022-11-09T08:15:07.709Z,8.98
2022-11-09T08:17:36.052Z,8.45
2022-11-09T08:20:04.091Z,8.65
2022-11-09T08:22:32.036Z,8.60
2022-11-09T08:24:59.925Z,8.20
2022-11-09T08:27:30.855Z,8.20
2022-11-09T08:29:58.744Z,8.68
2022-11-09T08:32:27.990Z,8.45
2022-11-09T08:34:55.884Z,8.73
2022-11-09T08:37:23.797Z,8.40
2022-11-09T08:39:51.686Z,8.18
2022-11-09T08:42:19.647Z,8.57
2022-11-09T08:44:47.617Z,7.70
2022-11-09T08:47:15.518Z,8.20
2022-11-09T08:49:47.119Z,9.43
2022-11-09T08:52:15.111Z,8.95
2022-11-09T08:54:43.011Z,9.13
2022-11-09T08:57:10.872Z,10.10
2022-11-09T08:59:38.875Z,17.02
2022-11-09T09:02:06.829Z,14.02
2022-11-09T09:04:35.421Z,12.45
2022-11-09T09:07:04.665Z,12.35
2022-11-09T09:09:32.969Z,13.00
2022-11-09T09:12:00.870Z,13.52
2022-11-09T09:14:28.806Z,15.00
2022-11-09T09:16:56.682Z,13.93
2022-11-09T09:19:24.565Z,13.65
2022-11-09T09:21:52.416Z,14.07
2022-11-09T09:24:21.781Z,14.85
2022-11-09T09:26:49.959Z,13.93
2022-11-09T09:29:18.108Z,13.77
2022-11-09T09:31:45.983Z,13.95
2022-11-09T09:34:13.897Z,13.95
2022-11-09T09:36:47.425Z,14.85
2022-11-09T09:39:16.068Z,14.40
2022-11-09T09:41:47.470Z,13.50
2022-11-09T09:44:21.191Z,13.80
2022-11-09T09:46:51.050Z,15.60
2022-11-09T09:49:21.559Z,15.82
2022-11-09T09:51:50.887Z,16.67
2022-11-09T09:54:20.737Z,17.70
2022-11-09T09:56:50.656Z,15.80
2022-11-09T09:59:21.510Z,16.08
2022-11-09T10:01:49.626Z,16.20
2022-11-09T10:04:19.523Z,16.25
2022-11-09T10:06:59.388Z,15.77
2022-11-09T10:09:35.658Z,16.02
2022-11-09T10:12:09.783Z,15.85
2022-11-09T10:15:13.725Z,15.30
2022-11-09T10:17:45.715Z,14.20
2022-11-09T10:20:23.255Z,15.07
2022-11-09T10:22:56.483Z,14.45
2022-11-09T10:25:43.495Z,15.10
2022-11-09T10:28:15.649Z,14.88
2022-11-09T10:30:43.932Z,14.77
2022-11-09T10:33:15.814Z,13.73
2022-11-09T10:35:45.804Z,14.52
2022-11-09T10:38:16.219Z,14.18
2022-11-09T10:40:52.548Z,14.65
2022-11-09T10:43:40.264Z,13.95
2022-11-09T10:46:26.592Z,13.45
2022-11-09T10:49:20.327Z,13.10
2022-11-09T10:52:09.334Z,13.85
2022-11-09T10:54:55.810Z,13.38
2022-11-09T10:57:42.554Z,13.20
2022-11-09T11:00:30.398Z,12.73
2022-11-09T11:03:18.059Z,12.80
2022-11-09T11:06:06.739Z,13.68
2022-11-09T11:08:55.485Z,13.25
2022-11-09T11:11:42.194Z,12.68
2022-11-09T11:14:30.982Z,12.40
2022-11-09T11:17:26.418Z,12.18
2022-11-09T11:20:34.531Z,12.45
2022-11-09T11:23:22.504Z,11.93
2022-11-09T11:26:30.913Z,12.40
2022-11-09T11:29:30.445Z,12.63
2022-11-09T11:32:18.579Z,11.88
2022-11-09T11:35:13.120Z,11.88
2022-11-09T11:38:06.307Z,11.68
2022-11-09T11:41:01.014Z,11.82
2022-11-09T11:43:50.212Z,11.45
2022-11-09T11:46:41.865Z,11.98
2022-11-09T11:49:39.207Z,12.20
2022-11-09T11:52:29.941Z,11.23
2022-11-09T11:55:23.330Z,11.68
2022-11-09T11:58:20.202Z,10.95
2022-11-09T12:01:14.069Z,11.77
2022-11-09T12:04:04.201Z,11.23
2022-11-09T12:06:55.757Z,11.13
2022-11-09T12:09:57.180Z,10.60
2022-11-09T12:12:46.901Z,11.57
2022-11-09T12:15:41.929Z,11.10
2022-11-09T12:18:40.355Z,11.18
2022-11-09T12:21:29.873Z,10.95
2022-11-09T12:24:20.376Z,11.35
2022-11-09T12:27:34.013Z,10.40
2022-11-09T12:30:22.056Z,11.18
2022-11-09T12:33:10.216Z,10.30
2022-11-09T12:35:59.371Z,11.02
2022-11-09T12:38:52.744Z,11.02
2022-11-09T12:41:39.309Z,10.73
2022-11-09T12:44:28.702Z,11.05
2022-11-09T12:47:16.402Z,10.70
2022-11-09T12:50:02.781Z,10.10
2022-11-09T12:52:50.206Z,10.43
2022-11-09T12:55:41.698Z,10.40
2022-11-09T12:58:29.153Z,10.50
2022-11-09T13:01:48.641Z,10.88
2022-11-09T13:04:35.342Z,10.30
2022-11-09T13:07:47.008Z,10.63
2022-11-09T13:10:34.467Z,10.20
2022-11-09T13:13:25.261Z,10.57
2022-11-09T13:16:32.262Z,10.10
2022-11-09T13:19:55.245Z,9.70
2022-11-09T13:23:01.403Z,10.13
2022-11-09T13:25:52.881Z,10.32
2022-11-09T13:29:10.315Z,9.80
2022-11-09T13:32:25.481Z,9.82
2022-11-09T13:35:41.949Z,10.27
2022-11-09T13:38:31.623Z,10.07
2022-11-09T13:41:43.719Z,10.63
2022-11-09T13:44:32.961Z,10.50
2022-11-09T13:47:23.633Z,10.57
2022-11-09T13:50:17.845Z,10.60
2022-11-09T13:53:04.400Z,9.80
2022-11-09T13:55:52.660Z,10.63
2022-11-09T13:58:39.821Z,10.60
2022-11-09T14:01:28.021Z,10.32
2022-11-09T14:04:25.690Z,10.43
2022-11-09T14:07:21.251Z,9.80
2022-11-09T14:10:11.274Z,10.38
2022-11-09T14:13:07.505Z,10.30
2022-11-09T14:15:55.889Z,10.73
2022-11-09T14:18:47.909Z,10.00
2022-11-09T14:21:39.955Z,10.10
2022-11-09T14:24:29.531Z,10.45
2022-11-09T14:27:20.654Z,9.93
2022-11-09T14:30:17.117Z,10.05
2022-11-09T14:33:03.363Z,9.88
2022-11-09T14:35:49.814Z,9.57
2022-11-09T14:38:37.126Z,9.52
2022-11-09T14:41:25.107Z,9.98
2022-11-09T14:44:14.883Z,10.45
2022-11-09T14:47:02.736Z,10.02
2022-11-09T14:49:49.006Z,9.88
2022-11-09T14:52:35.285Z,10.27
2022-11-09T14:55:22.374Z,9.73
2022-11-09T14:58:12.192Z,9.75
2022-11-09T15:01:09.171Z,9.80
2022-11-09T15:04:12.052Z,9.68
2022-11-09T15:07:00.419Z,10.00
2022-11-09T15:09:48.305Z,9.32
2022-11-09T15:12:34.661Z,10.00
2022-11-09T15:15:22.287Z,10.10
2022-11-09T15:18:17.963Z,9.48
2022-11-09T15:21:13.970Z,9.60
2022-11-09T15:24:05.165Z,9.27
2022-11-09T15:26:52.802Z,9.95
2022-11-09T15:29:40.464Z,9.55
2022-11-09T15:32:27.268Z,9.30
2022-11-09T15:35:17.740Z,9.40
2022-11-09T15:38:05.391Z,9.50
2022-11-09T15:40:51.931Z,9.63
2022-11-09T15:43:38.266Z,8.77
2022-11-09T15:46:25.670Z,9.75
2022-11-09T15:49:17.876Z,9.07
2022-11-09T15:52:05.555Z,9.40
2022-11-09T15:54:53.543Z,9.02
2022-11-09T15:57:40.162Z,10.02
2022-11-09T16:00:26.491Z,9.27
2022-11-09T16:03:12.891Z,9.20
2022-11-09T16:06:00.887Z,9.35
2022-11-09T16:08:48.416Z,9.60
2022-11-09T16:11:36.251Z,9.05
2022-11-09T16:14:22.961Z,9.43
2022-11-09T16:17:09.606Z,9.50
2022-11-09T16:19:55.897Z,9.05
2022-11-09T16:22:42.143Z,9.45
2022-11-09T16:25:28.332Z,9.00
2022-11-09T16:28:15.912Z,8.90
2022-11-09T16:31:02.527Z,8.75
2022-11-09T16:33:49.372Z,9.18
2022-11-09T16:36:37.276Z,9.77
2022-11-09T16:39:23.960Z,9.02
2022-11-09T16:42:11.314Z,9.45
2022-11-09T16:45:00.284Z,9.05
2022-11-09T16:47:47.701Z,8.90
2022-11-09T16:50:34.054Z,9.15
2022-11-09T16:53:25.551Z,8.73
2022-11-09T16:56:13.769Z,8.68
2022-11-09T16:59:00.632Z,8.40
2022-11-09T17:01:52.641Z,8.70
2022-11-09T17:04:39.212Z,8.90
2022-11-09T17:07:25.457Z,8.77
2022-11-09T17:10:11.714Z,8.82
2022-11-09T17:12:57.949Z,8.13
2022-11-09T17:15:44.896Z,8.52
2022-11-09T17:18:32.765Z,8.70
2022-11-09T17:21:19.068Z,8.60
2022-11-09T17:24:06.398Z,8.35
2022-11-09T17:26:53.347Z,8.38
2022-11-09T17:29:40.686Z,8.48
2022-11-09T17:32:28.212Z,8.70
2022-11-09T17:35:16.557Z,8.63
2022-11-09T17:38:02.928Z,8.90
2022-11-09T17:40:49.208Z,8.52
2022-11-09T17:43:36.927Z,8.85
2022-11-09T17:46:23.560Z,8.02
2022-11-09T17:49:10.703Z,8.73
2022-11-09T17:51:58.707Z,8.60
2022-11-09T17:54:45.543Z,8.52
2022-11-09T17:57:32.917Z,8.77
2022-11-09T18:00:20.441Z,8.80
2022-11-09T18:03:07.005Z,8.30
2022-11-09T18:05:53.245Z,9.18
2022-11-09T18:08:40.966Z,8.30
2022-11-09T18:11:29.897Z,8.38
2022-11-09T18:14:16.811Z,9.10
2022-11-09T18:17:03.129Z,9.45
2022-11-09T18:19:49.450Z,9.00
2022-11-09T18:22:35.892Z,8.75
2022-11-09T18:25:23.612Z,8.40
2022-11-09T18:28:10.025Z,8.70
2022-11-09T18:31:00.808Z,8.88
2022-11-09T18:33:47.470Z,8.93
2022-11-09T18:36:33.765Z,9.02
2022-11-09T18:39:20.118Z,8.85
2022-11-09T18:42:07.874Z,8.68
2022-11-09T18:44:54.386Z,9.07
2022-11-09T18:47:40.791Z,9.35
2022-11-09T18:50:26.999Z,8.45
2022-11-09T18:53:13.378Z,8.60
2022-11-09T18:56:06.041Z,9.48
2022-11-09T18:58:56.188Z,9.02
2022-11-09T19:01:42.844Z,8.77
2022-11-09T19:04:29.132Z,9.25
2022-11-09T19:07:15.614Z,9.95
2022-11-09T19:10:02.964Z,9.80
2022-11-09T19:12:49.416Z,9.55
2022-11-09T19:15:39.356Z,9.80
2022-11-09T19:18:26.681Z,9.57
2022-11-09T19:21:27.078Z,9.77
2022-11-09T19:24:14.733Z,9.60
2022-11-09T19:27:02.884Z,9.63
2022-11-09T19:29:49.637Z,10.30
2022-11-09T19:32:37.823Z,9.95
2022-11-09T19:35:27.365Z,9.55
2022-11-09T19:38:16.337Z,10.23
2022-11-09T19:41:02.847Z,9.57
2022-11-09T19:43:50.329Z,10.13
2022-11-09T19:46:36.991Z,10.80
2022-11-09T19:49:24.967Z,10.75
2022-11-09T19:52:11.587Z,10.65
2022-11-09T19:54:57.880Z,10.40
2022-11-09T19:57:44.154Z,10.00
2022-11-09T20:00:31.187Z,10.90
2022-11-09T20:03:17.586Z,10.50
2022-11-09T20:06:06.053Z,10.73
2022-11-09T20:08:53.805Z,10.63
2022-11-09T20:11:57.885Z,10.63
2022-11-09T20:14:44.693Z,10.40
2022-11-09T20:17:31.346Z,11.00
2022-11-09T20:20:18.015Z,10.30
2022-11-09T20:23:06.046Z,11.15
2022-11-09T20:25:52.417Z,10.88
2022-11-09T20:28:38.751Z,10.85
2022-11-09T20:31:25.284Z,10.40
2022-11-09T20:34:11.751Z,10.38
2022-11-09T20:36:58.706Z,10.23
2022-11-09T20:39:46.473Z,10.90
2022-11-09T20:42:33.256Z,10.32
2022-11-09T20:45:19.594Z,11.00
2022-11-09T20:48:19.491Z,10.60
2022-11-09T20:51:15.309Z,10.35
2022-11-09T20:54:06.833Z,10.55
2022-11-09T20:56:55.248Z,10.68
2022-11-09T20:59:41.825Z,10.27
2022-11-09T21:02:28.172Z,11.25
2022-11-09T21:05:14.623Z,11.00
2022-11-09T21:08:02.114Z,11.05
2022-11-09T21:10:48.947Z,10.52
2022-11-09T21:13:36.967Z,10.38
2022-11-09T21:16:24.118Z,10.18
2022-11-09T21:19:10.640Z,10.40
2022-11-09T21:21:57.737Z,10.65
2022-11-09T21:25:02.020Z,9.60
2022-11-09T21:28:06.202Z,10.25
2022-11-09T21:30:54.063Z,10.00
2022-11-09T21:33:40.700Z,9.85
2022-11-09T21:36:27.433Z,9.75
2022-11-09T21:39:14.027Z,9.65
2022-11-09T21:42:00.558Z,9.55
2022-11-09T21:44:46.873Z,9.18
2022-11-09T21:47:34.667Z,9.05
2022-11-09T21:50:20.867Z,9.20
2022-11-09T21:53:07.155Z,9.07
2022-11-09T21:55:53.846Z,9.25
2022-11-09T21:58:40.405Z,9.32
2022-11-09T22:01:26.861Z,9.55
2022-11-09T22:04:14.468Z,9.57
2022-11-09T22:07:00.734Z,9.10
2022-11-09T22:10:09.276Z,9.18
2022-11-09T22:13:19.810Z,9.52
2022-11-09T22:16:07.216Z,9.80
2022-11-09T22:19:11.229Z,10.25
2022-11-09T22:21:59.277Z,10.02
2022-11-09T22:24:45.757Z,9.52
2022-11-09T22:27:32.305Z,9.73
2022-11-09T22:30:18.815Z,9.45
2022-11-09T22:33:05.290Z,9.63
2022-11-09T22:35:55.029Z,9.40
2022-11-09T22:38:43.326Z,9.73
2022-11-09T22:41:29.733Z,10.02
2022-11-09T22:44:16.109Z,9.35
2022-11-09T22:47:02.700Z,9.48
2022-11-09T22:49:49.075Z,9.30
2022-11-09T22:52:35.258Z,9.05
2022-11-09T22:55:22.945Z,9.38
2022-11-09T22:58:09.302Z,9.57
2022-11-09T23:00:55.651Z,9.50
2022-11-09T23:03:42.051Z,9.15
2022-11-09T23:06:28.444Z,10.05
2022-11-09T23:09:15.043Z,9.70
2022-11-09T23:12:02.669Z,9.52
2022-11-09T23:15:12.413Z,9.50
2022-11-09T23:18:16.548Z,9.73
2022-11-09T23:21:03.214Z,9.05
2022-11-09T23:23:49.665Z,9.77
2022-11-09T23:26:36.021Z,9.50
2022-11-09T23:29:23.686Z,9.50
2022-11-09T23:32:09.865Z,9.57
2022-11-09T23:34:56.199Z,9.45
2022-11-09T23:37:42.744Z,9.60
2022-11-09T23:40:29.074Z,9.43
2022-11-09T23:43:16.280Z,9.45
2022-11-09T23:46:04.894Z,10.20
2022-11-09T23:48:51.502Z,9.10
2022-11-09T23:51:38.005Z,9.15
2022-11-09T23:54:24.304Z,9.05
2022-11-09T23:57:10.621Z,9.43
2022-11-09T23:59:56.920Z,9.10
